Wimauma, Florida
Current Conditions -  °F | °C
As of 4:58 AM on Thursday 23 Oct 2014 (Local Time) from KMCF Reporting Station
Clear Clear  
Wind Chill: 64°   Ceiling: Unl
Heat Index: 64°   Visibility: 10mi
Dew Point: 59°   Wind: 14mph
Humidity: 84%   Direction: 70°ENE
Pressure: 29.95"   Gusts: NA
Location:  27.71°N, 82.3°W
Report Text: KMCF 230858Z AUTO 07012KT 10SM CLR 18/15 A2995 RMK AO2 SLP145 T01760149 57007
Loading
Personal Weather Stations






























Interactive Weather Map
Tropical Storm Tracking
New forecast layout! Learn more

10-Day Weather Forecast

Advertisements
Track Severe Weather on mobile